sensor_id;sensor_type;location;lat;lon;timestamp;temperature;humidity
19263;DHT22;9765;52.354;20.884;2023-05-10T03:47:31;6.10;99.90
19263;DHT22;9765;52.354;20.884;2023-05-10T03:49:57;6.10;99.90
19263;DHT22;9765;52.354;20.884;2023-05-10T03:52:29;6.20;99.90
19263;DHT22;9765;52.354;20.884;2023-05-10T03:55:00;6.30;99.90
19263;DHT22;9765;52.354;20.884;2023-05-10T03:57:29;6.50;99.90
19263;DHT22;9765;52.354;20.884;2023-05-10T04:00:00;6.60;99.90
19263;DHT22;9765;52.354;20.884;2023-05-10T04:02:26;6.80;99.90
19263;DHT22;9765;52.354;20.884;2023-05-10T04:04:55;7.00;99.90
19263;DHT22;9765;52.354;20.884;2023-05-10T04:07:24;7.20;99.90
19263;DHT22;9765;52.354;20.884;2023-05-10T04:09:53;7.40;99.90
19263;DHT22;9765;52.354;20.884;2023-05-10T04:12:23;7.60;99.90
19263;DHT22;9765;52.354;20.884;2023-05-10T04:14:50;7.80;99.90
19263;DHT22;9765;52.354;20.884;2023-05-10T04:17:16;8.00;99.90
19263;DHT22;9765;52.354;20.884;2023-05-10T04:19:43;8.20;99.90
19263;DHT22;9765;52.354;20.884;2023-05-10T04:22:12;8.30;99.90
19263;DHT22;9765;52.354;20.884;2023-05-10T04:24:38;8.40;99.90
19263;DHT22;9765;52.354;20.884;2023-05-10T04:27:05;8.50;99.90
19263;DHT22;9765;52.354;20.884;2023-05-10T04:29:32;8.70;99.90
19263;DHT22;9765;52.354;20.884;2023-05-10T04:31:58;8.80;99.90
19263;DHT22;9765;52.354;20.884;2023-05-10T04:34:28;8.90;99.90
19263;DHT22;9765;52.354;20.884;2023-05-10T04:36:55;9.10;99.90
19263;DHT22;9765;52.354;20.884;2023-05-10T04:39:23;9.30;99.90
19263;DHT22;9765;52.354;20.884;2023-05-10T04:41:50;9.50;99.90
19263;DHT22;9765;52.354;20.884;2023-05-10T04:44:16;9.60;99.90
19263;DHT22;9765;52.354;20.884;2023-05-10T04:46:45;9.70;99.90
19263;DHT22;9765;52.354;20.884;2023-05-10T04:49:14;9.80;99.90
19263;DHT22;9765;52.354;20.884;2023-05-10T04:51:43;9.90;99.90
19263;DHT22;9765;52.354;20.884;2023-05-10T04:54:11;10.10;99.90
19263;DHT22;9765;52.354;20.884;2023-05-10T04:56:42;10.10;99.90
19263;DHT22;9765;52.354;20.884;2023-05-10T04:59:12;10.20;99.90
19263;DHT22;9765;52.354;20.884;2023-05-10T05:01:41;10.40;99.90
19263;DHT22;9765;52.354;20.884;2023-05-10T05:04:08;10.40;99.90
19263;DHT22;9765;52.354;20.884;2023-05-10T05:06:35;10.60;99.90
19263;DHT22;9765;52.354;20.884;2023-05-10T05:09:03;10.80;99.90
19263;DHT22;9765;52.354;20.884;2023-05-10T05:11:30;10.90;99.90
19263;DHT22;9765;52.354;20.884;2023-05-10T05:13:58;11.00;99.90
19263;DHT22;9765;52.354;20.884;2023-05-10T05:16:25;11.10;99.90
19263;DHT22;9765;52.354;20.884;2023-05-10T05:18:52;11.20;99.90
19263;DHT22;9765;52.354;20.884;2023-05-10T05:21:19;11.20;99.90
19263;DHT22;9765;52.354;20.884;2023-05-10T05:23:46;11.30;99.90
19263;DHT22;9765;52.354;20.884;2023-05-10T05:26:16;11.40;99.90
19263;DHT22;9765;52.354;20.884;2023-05-10T05:28:43;11.50;99.90
19263;DHT22;9765;52.354;20.884;2023-05-10T05:31:14;11.70;99.90
19263;DHT22;9765;52.354;20.884;2023-05-10T05:33:42;11.70;99.90
19263;DHT22;9765;52.354;20.884;2023-05-10T05:36:09;11.80;99.90
19263;DHT22;9765;52.354;20.884;2023-05-10T05:38:39;11.90;99.90
19263;DHT22;9765;52.354;20.884;2023-05-10T05:41:06;12.00;99.90
19263;DHT22;9765;52.354;20.884;2023-05-10T05:43:34;12.10;99.90
19263;DHT22;9765;52.354;20.884;2023-05-10T05:46:02;12.20;99.90
19263;DHT22;9765;52.354;20.884;2023-05-10T05:48:30;12.30;99.90
19263;DHT22;9765;52.354;20.884;2023-05-10T05:50:58;12.40;99.90
19263;DHT22;9765;52.354;20.884;2023-05-10T05:53:25;12.40;99.90
19263;DHT22;9765;52.354;20.884;2023-05-10T05:55:52;12.50;99.90
19263;DHT22;9765;52.354;20.884;2023-05-10T05:58:22;12.50;99.90
19263;DHT22;9765;52.354;20.884;2023-05-10T06:00:51;12.80;99.90
19263;DHT22;9765;52.354;20.884;2023-05-10T06:03:18;12.80;99.90
19263;DHT22;9765;52.354;20.884;2023-05-10T06:05:46;12.90;99.90
19263;DHT22;9765;52.354;20.884;2023-05-10T06:08:19;13.10;99.90
19263;DHT22;9765;52.354;20.884;2023-05-10T06:10:46;13.20;99.90
19263;DHT22;9765;52.354;20.884;2023-05-10T06:13:13;13.30;99.90
19263;DHT22;9765;52.354;20.884;2023-05-10T06:15:41;13.50;99.90
19263;DHT22;9765;52.354;20.884;2023-05-10T06:18:08;13.50;99.90
19263;DHT22;9765;52.354;20.884;2023-05-10T06:20:37;13.30;99.90
19263;DHT22;9765;52.354;20.884;2023-05-10T06:23:05;13.60;99.90
19263;DHT22;9765;52.354;20.884;2023-05-10T06:25:35;13.70;99.90
19263;DHT22;9765;52.354;20.884;2023-05-10T06:28:08;13.80;99.90
19263;DHT22;9765;52.354;20.884;2023-05-10T06:30:36;14.00;99.90
19263;DHT22;9765;52.354;20.884;2023-05-10T06:33:05;14.20;99.90
19263;DHT22;9765;52.354;20.884;2023-05-10T06:35:33;14.20;99.90
19263;DHT22;9765;52.354;20.884;2023-05-10T06:38:05;14.30;99.40
19263;DHT22;9765;52.354;20.884;2023-05-10T06:40:34;14.40;99.80
19263;DHT22;9765;52.354;20.884;2023-05-10T06:43:01;14.50;99.90
19263;DHT22;9765;52.354;20.884;2023-05-10T06:45:28;14.60;99.50
19263;DHT22;9765;52.354;20.884;2023-05-10T06:47:56;14.70;99.70
19263;DHT22;9765;52.354;20.884;2023-05-10T06:50:23;14.70;98.70
19263;DHT22;9765;52.354;20.884;2023-05-10T06:52:52;14.80;99.30
19263;DHT22;9765;52.354;20.884;2023-05-10T06:55:22;14.90;98.50
19263;DHT22;9765;52.354;20.884;2023-05-10T06:57:52;14.90;98.50
19263;DHT22;9765;52.354;20.884;2023-05-10T07:00:19;15.00;99.50
19263;DHT22;9765;52.354;20.884;2023-05-10T07:02:48;15.10;98.80
19263;DHT22;9765;52.354;20.884;2023-05-10T07:05:15;15.20;97.40
19263;DHT22;9765;52.354;20.884;2023-05-10T07:07:45;15.30;97.80
19263;DHT22;9765;52.354;20.884;2023-05-10T07:10:11;15.50;97.20
19263;DHT22;9765;52.354;20.884;2023-05-10T07:12:40;15.60;96.70
19263;DHT22;9765;52.354;20.884;2023-05-10T07:15:08;15.70;98.30
19263;DHT22;9765;52.354;20.884;2023-05-10T07:17:39;15.90;97.60
19263;DHT22;9765;52.354;20.884;2023-05-10T07:20:08;16.00;95.80
19263;DHT22;9765;52.354;20.884;2023-05-10T07:22:35;16.00;96.50
19263;DHT22;9765;52.354;20.884;2023-05-10T07:25:07;16.00;95.10
19263;DHT22;9765;52.354;20.884;2023-05-10T07:27:37;15.90;95.80
19263;DHT22;9765;52.354;20.884;2023-05-10T07:30:09;16.10;96.10
19263;DHT22;9765;52.354;20.884;2023-05-10T07:32:38;16.20;95.70
19263;DHT22;9765;52.354;20.884;2023-05-10T07:35:07;16.30;94.30
19263;DHT22;9765;52.354;20.884;2023-05-10T07:37:36;16.30;95.00
19263;DHT22;9765;52.354;20.884;2023-05-10T07:40:04;16.50;94.00
19263;DHT22;9765;52.354;20.884;2023-05-10T07:42:33;16.50;93.10
19263;DHT22;9765;52.354;20.884;2023-05-10T07:45:08;16.50;93.40
19263;DHT22;9765;52.354;20.884;2023-05-10T07:47:35;16.60;91.50
19263;DHT22;9765;52.354;20.884;2023-05-10T07:50:01;16.70;92.80
19263;DHT22;9765;52.354;20.884;2023-05-10T07:52:34;16.60;92.70
19263;DHT22;9765;52.354;20.884;2023-05-10T07:55:01;16.70;91.30
19263;DHT22;9765;52.354;20.884;2023-05-10T07:57:28;16.50;91.30
19263;DHT22;9765;52.354;20.884;2023-05-10T07:59:56;16.50;92.10
19263;DHT22;9765;52.354;20.884;2023-05-10T08:02:26;16.60;91.40
19263;DHT22;9765;52.354;20.884;2023-05-10T08:04:53;16.60;91.30
19263;DHT22;9765;52.354;20.884;2023-05-10T08:07:26;16.70;92.40
19263;DHT22;9765;52.354;20.884;2023-05-10T08:09:53;17.00;92.50
19263;DHT22;9765;52.354;20.884;2023-05-10T08:12:23;17.20;92.00
19263;DHT22;9765;52.354;20.884;2023-05-10T08:14:52;17.30;90.90
19263;DHT22;9765;52.354;20.884;2023-05-10T08:17:21;17.30;90.50
19263;DHT22;9765;52.354;20.884;2023-05-10T08:19:51;17.30;91.50
19263;DHT22;9765;52.354;20.884;2023-05-10T08:22:18;17.40;90.30
19263;DHT22;9765;52.354;20.884;2023-05-10T08:24:44;17.20;88.50
19263;DHT22;9765;52.354;20.884;2023-05-10T08:27:15;17.20;90.10
19263;DHT22;9765;52.354;20.884;2023-05-10T08:29:42;17.30;89.40
19263;DHT22;9765;52.354;20.884;2023-05-10T08:32:09;17.30;90.30
19263;DHT22;9765;52.354;20.884;2023-05-10T08:34:40;17.30;87.10
19263;DHT22;9765;52.354;20.884;2023-05-10T08:37:10;17.20;89.40
19263;DHT22;9765;52.354;20.884;2023-05-10T08:39:38;17.20;88.80
19263;DHT22;9765;52.354;20.884;2023-05-10T08:42:05;17.20;89.80
19263;DHT22;9765;52.354;20.884;2023-05-10T08:44:36;17.30;87.60
19263;DHT22;9765;52.354;20.884;2023-05-10T08:47:05;17.30;88.30
19263;DHT22;9765;52.354;20.884;2023-05-10T08:49:37;17.50;86.90
19263;DHT22;9765;52.354;20.884;2023-05-10T08:52:06;17.50;87.70
19263;DHT22;9765;52.354;20.884;2023-05-10T08:54:35;17.80;87.10
19263;DHT22;9765;52.354;20.884;2023-05-10T08:57:08;17.90;85.60
19263;DHT22;9765;52.354;20.884;2023-05-10T08:59:37;17.80;86.80
19263;DHT22;9765;52.354;20.884;2023-05-10T09:02:08;17.70;87.90
19263;DHT22;9765;52.354;20.884;2023-05-10T09:04:36;17.80;88.00
19263;DHT22;9765;52.354;20.884;2023-05-10T09:07:06;17.70;86.50
19263;DHT22;9765;52.354;20.884;2023-05-10T09:09:35;17.70;86.00
19263;DHT22;9765;52.354;20.884;2023-05-10T09:12:03;17.60;88.20
19263;DHT22;9765;52.354;20.884;2023-05-10T09:14:33;17.80;86.70
19263;DHT22;9765;52.354;20.884;2023-05-10T09:17:03;17.70;87.50
19263;DHT22;9765;52.354;20.884;2023-05-10T09:19:49;17.90;86.50
19263;DHT22;9765;52.354;20.884;2023-05-10T09:22:19;17.80;88.10
19263;DHT22;9765;52.354;20.884;2023-05-10T09:24:47;17.90;89.80
19263;DHT22;9765;52.354;20.884;2023-05-10T09:27:17;18.20;86.30
19263;DHT22;9765;52.354;20.884;2023-05-10T09:29:55;18.20;83.40
19263;DHT22;9765;52.354;20.884;2023-05-10T09:32:36;18.30;84.60
19263;DHT22;9765;52.354;20.884;2023-05-10T09:35:09;18.30;86.10
19263;DHT22;9765;52.354;20.884;2023-05-10T09:37:39;18.30;86.20
19263;DHT22;9765;52.354;20.884;2023-05-10T09:40:12;18.40;84.10
19263;DHT22;9765;52.354;20.884;2023-05-10T09:42:43;18.40;83.50
19263;DHT22;9765;52.354;20.884;2023-05-10T09:45:17;18.30;82.80
19263;DHT22;9765;52.354;20.884;2023-05-10T09:47:47;18.40;86.80
19263;DHT22;9765;52.354;20.884;2023-05-10T09:50:16;18.50;82.70
19263;DHT22;9765;52.354;20.884;2023-05-10T09:52:48;18.50;83.30
19263;DHT22;9765;52.354;20.884;2023-05-10T09:55:17;18.60;84.90
19263;DHT22;9765;52.354;20.884;2023-05-10T09:57:45;18.70;84.50
19263;DHT22;9765;52.354;20.884;2023-05-10T10:00:18;18.60;84.10
19263;DHT22;9765;52.354;20.884;2023-05-10T10:02:53;18.60;83.90
19263;DHT22;9765;52.354;20.884;2023-05-10T10:05:22;18.70;84.50
19263;DHT22;9765;52.354;20.884;2023-05-10T10:07:57;18.80;83.60
19263;DHT22;9765;52.354;20.884;2023-05-10T10:10:26;18.80;83.70
19263;DHT22;9765;52.354;20.884;2023-05-10T10:12:58;19.00;84.10
19263;DHT22;9765;52.354;20.884;2023-05-10T10:15:27;18.90;82.70
19263;DHT22;9765;52.354;20.884;2023-05-10T10:17:55;19.00;84.00
19263;DHT22;9765;52.354;20.884;2023-05-10T10:20:22;18.90;83.70
19263;DHT22;9765;52.354;20.884;2023-05-10T10:22:52;18.60;83.40
19263;DHT22;9765;52.354;20.884;2023-05-10T10:25:21;18.70;83.90
19263;DHT22;9765;52.354;20.884;2023-05-10T10:28:06;18.80;83.20
19263;DHT22;9765;52.354;20.884;2023-05-10T10:30:39;18.90;82.80
19263;DHT22;9765;52.354;20.884;2023-05-10T10:33:33;18.70;85.00
19263;DHT22;9765;52.354;20.884;2023-05-10T10:36:03;18.90;83.60
19263;DHT22;9765;52.354;20.884;2023-05-10T10:41:28;19.30;83.80
19263;DHT22;9765;52.354;20.884;2023-05-10T10:44:24;19.20;81.10
19263;DHT22;9765;52.354;20.884;2023-05-10T10:47:21;19.00;82.50
19263;DHT22;9765;52.354;20.884;2023-05-10T10:50:04;19.00;81.20
19263;DHT22;9765;52.354;20.884;2023-05-10T10:52:34;18.90;85.70
19263;DHT22;9765;52.354;20.884;2023-05-10T10:55:05;19.00;81.60
19263;DHT22;9765;52.354;20.884;2023-05-10T10:57:46;19.00;82.00
19263;DHT22;9765;52.354;20.884;2023-05-10T11:00:27;19.10;82.30
19263;DHT22;9765;52.354;20.884;2023-05-10T11:02:59;19.20;83.20
19263;DHT22;9765;52.354;20.884;2023-05-10T11:05:35;19.10;79.70
19263;DHT22;9765;52.354;20.884;2023-05-10T11:08:09;19.20;80.30
19263;DHT22;9765;52.354;20.884;2023-05-10T11:10:40;19.30;82.30
19263;DHT22;9765;52.354;20.884;2023-05-10T11:13:08;19.40;79.20
19263;DHT22;9765;52.354;20.884;2023-05-10T11:15:38;19.10;79.00
19263;DHT22;9765;52.354;20.884;2023-05-10T11:18:17;19.00;81.80
19263;DHT22;9765;52.354;20.884;2023-05-10T11:20:50;19.00;80.20
19263;DHT22;9765;52.354;20.884;2023-05-10T11:23:19;19.10;81.30
19263;DHT22;9765;52.354;20.884;2023-05-10T11:25:48;19.10;79.80
19263;DHT22;9765;52.354;20.884;2023-05-10T11:28:19;19.20;81.80
19263;DHT22;9765;52.354;20.884;2023-05-10T11:30:48;19.30;82.20
19263;DHT22;9765;52.354;20.884;2023-05-10T11:33:17;19.20;81.00
19263;DHT22;9765;52.354;20.884;2023-05-10T11:35:45;19.20;81.90
19263;DHT22;9765;52.354;20.884;2023-05-10T11:38:13;19.20;80.00
19263;DHT22;9765;52.354;20.884;2023-05-10T11:40:42;19.30;81.60
19263;DHT22;9765;52.354;20.884;2023-05-10T11:43:12;19.40;80.80
19263;DHT22;9765;52.354;20.884;2023-05-10T11:45:40;19.60;81.40
19263;DHT22;9765;52.354;20.884;2023-05-10T11:48:12;19.40;81.30
19263;DHT22;9765;52.354;20.884;2023-05-10T11:50:39;19.40;80.30
19263;DHT22;9765;52.354;20.884;2023-05-10T11:53:07;19.50;80.60
19263;DHT22;9765;52.354;20.884;2023-05-10T11:55:34;19.50;80.70
19263;DHT22;9765;52.354;20.884;2023-05-10T11:58:07;19.70;81.40
19263;DHT22;9765;52.354;20.884;2023-05-10T12:00:34;19.60;82.80
19263;DHT22;9765;52.354;20.884;2023-05-10T12:03:01;19.60;81.90
19263;DHT22;9765;52.354;20.884;2023-05-10T12:05:32;19.50;80.30
19263;DHT22;9765;52.354;20.884;2023-05-10T12:08:12;19.50;81.80
19263;DHT22;9765;52.354;20.884;2023-05-10T12:10:39;19.60;80.70
19263;DHT22;9765;52.354;20.884;2023-05-10T12:13:11;19.40;80.00
19263;DHT22;9765;52.354;20.884;2023-05-10T12:15:38;19.20;80.70
19263;DHT22;9765;52.354;20.884;2023-05-10T12:18:13;19.10;79.90
19263;DHT22;9765;52.354;20.884;2023-05-10T12:20:44;19.10;80.70
19263;DHT22;9765;52.354;20.884;2023-05-10T12:23:13;19.10;80.00
19263;DHT22;9765;52.354;20.884;2023-05-10T12:25:43;19.20;80.20
19263;DHT22;9765;52.354;20.884;2023-05-10T12:28:19;19.20;81.20
19263;DHT22;9765;52.354;20.884;2023-05-10T12:30:46;19.30;81.60
19263;DHT22;9765;52.354;20.884;2023-05-10T12:33:14;19.30;79.80
19263;DHT22;9765;52.354;20.884;2023-05-10T12:35:47;19.50;80.70
19263;DHT22;9765;52.354;20.884;2023-05-10T12:38:27;19.40;81.30
19263;DHT22;9765;52.354;20.884;2023-05-10T12:40:58;19.50;79.80
19263;DHT22;9765;52.354;20.884;2023-05-10T12:43:30;19.60;82.20
19263;DHT22;9765;52.354;20.884;2023-05-10T12:45:57;19.60;80.70
19263;DHT22;9765;52.354;20.884;2023-05-10T12:48:26;19.70;80.50
19263;DHT22;9765;52.354;20.884;2023-05-10T12:50:55;19.70;79.30
19263;DHT22;9765;52.354;20.884;2023-05-10T12:53:27;19.50;79.20
19263;DHT22;9765;52.354;20.884;2023-05-10T12:55:54;19.50;80.90
19263;DHT22;9765;52.354;20.884;2023-05-10T12:58:23;19.80;80.70
19263;DHT22;9765;52.354;20.884;2023-05-10T13:00:50;19.80;79.40
19263;DHT22;9765;52.354;20.884;2023-05-10T13:03:18;19.60;81.90
19263;DHT22;9765;52.354;20.884;2023-05-10T13:05:45;19.60;80.90
19263;DHT22;9765;52.354;20.884;2023-05-10T13:08:15;19.70;81.90
19263;DHT22;9765;52.354;20.884;2023-05-10T13:10:43;19.70;79.80
19263;DHT22;9765;52.354;20.884;2023-05-10T13:13:11;19.80;79.10
19263;DHT22;9765;52.354;20.884;2023-05-10T13:15:38;19.80;80.00
19263;DHT22;9765;52.354;20.884;2023-05-10T13:18:05;19.60;80.60
19263;DHT22;9765;52.354;20.884;2023-05-10T13:20:32;19.50;79.80
19263;DHT22;9765;52.354;20.884;2023-05-10T13:22:59;19.60;79.80
19263;DHT22;9765;52.354;20.884;2023-05-10T13:25:29;19.60;81.30
19263;DHT22;9765;52.354;20.884;2023-05-10T13:27:58;19.70;80.30
19263;DHT22;9765;52.354;20.884;2023-05-10T13:30:28;19.70;79.80
19263;DHT22;9765;52.354;20.884;2023-05-10T13:32:56;19.50;79.70
19263;DHT22;9765;52.354;20.884;2023-05-10T13:35:23;19.50;81.00
19263;DHT22;9765;52.354;20.884;2023-05-10T13:37:52;19.40;81.30
19263;DHT22;9765;52.354;20.884;2023-05-10T13:40:22;19.50;82.80
19263;DHT22;9765;52.354;20.884;2023-05-10T13:42:50;19.60;82.60
19263;DHT22;9765;52.354;20.884;2023-05-10T13:45:18;19.40;83.40
19263;DHT22;9765;52.354;20.884;2023-05-10T13:47:45;19.30;82.40
19263;DHT22;9765;52.354;20.884;2023-05-10T13:50:12;19.30;83.00
19263;DHT22;9765;52.354;20.884;2023-05-10T13:52:39;19.30;82.50
19263;DHT22;9765;52.354;20.884;2023-05-10T13:55:12;19.50;85.40
19263;DHT22;9765;52.354;20.884;2023-05-10T13:57:39;19.40;81.10
19263;DHT22;9765;52.354;20.884;2023-05-10T14:00:09;19.40;80.90
19263;DHT22;9765;52.354;20.884;2023-05-10T14:02:36;19.40;81.40
19263;DHT22;9765;52.354;20.884;2023-05-10T14:05:03;19.40;82.70
19263;DHT22;9765;52.354;20.884;2023-05-10T14:07:30;19.50;83.20
19263;DHT22;9765;52.354;20.884;2023-05-10T14:09:58;19.40;82.40
19263;DHT22;9765;52.354;20.884;2023-05-10T14:12:25;19.30;82.60
19263;DHT22;9765;52.354;20.884;2023-05-10T14:14:52;19.30;84.20
19263;DHT22;9765;52.354;20.884;2023-05-10T14:17:21;19.20;83.20
19263;DHT22;9765;52.354;20.884;2023-05-10T14:19:48;19.10;83.00
19263;DHT22;9765;52.354;20.884;2023-05-10T14:22:15;19.00;82.50
19263;DHT22;9765;52.354;20.884;2023-05-10T14:24:45;19.00;81.60
19263;DHT22;9765;52.354;20.884;2023-05-10T14:27:15;19.00;83.50
19263;DHT22;9765;52.354;20.884;2023-05-10T14:29:42;19.00;82.00
19263;DHT22;9765;52.354;20.884;2023-05-10T14:32:09;18.90;80.80
19263;DHT22;9765;52.354;20.884;2023-05-10T14:34:37;18.80;82.50
19263;DHT22;9765;52.354;20.884;2023-05-10T14:37:04;18.70;82.30
19263;DHT22;9765;52.354;20.884;2023-05-10T14:39:36;18.80;84.00
19263;DHT22;9765;52.354;20.884;2023-05-10T14:42:03;18.70;82.80
19263;DHT22;9765;52.354;20.884;2023-05-10T14:44:31;18.60;81.90
19263;DHT22;9765;52.354;20.884;2023-05-10T14:46:58;18.50;82.60
19263;DHT22;9765;52.354;20.884;2023-05-10T14:49:25;18.50;82.80
19263;DHT22;9765;52.354;20.884;2023-05-10T14:51:53;18.50;81.60
19263;DHT22;9765;52.354;20.884;2023-05-10T14:54:22;18.40;83.60
19263;DHT22;9765;52.354;20.884;2023-05-10T14:56:50;18.40;81.30
19263;DHT22;9765;52.354;20.884;2023-05-10T14:59:20;18.40;81.70
19263;DHT22;9765;52.354;20.884;2023-05-10T15:01:50;18.30;83.70
19263;DHT22;9765;52.354;20.884;2023-05-10T15:04:21;18.30;82.80
19263;DHT22;9765;52.354;20.884;2023-05-10T15:06:48;18.40;81.90
19263;DHT22;9765;52.354;20.884;2023-05-10T15:09:17;18.30;81.50
19263;DHT22;9765;52.354;20.884;2023-05-10T15:11:45;18.30;81.80
19263;DHT22;9765;52.354;20.884;2023-05-10T15:14:13;18.10;81.50
19263;DHT22;9765;52.354;20.884;2023-05-10T15:16:44;18.10;82.40
19263;DHT22;9765;52.354;20.884;2023-05-10T15:19:11;18.10;83.00
19263;DHT22;9765;52.354;20.884;2023-05-10T15:21:38;18.10;82.70
19263;DHT22;9765;52.354;20.884;2023-05-10T15:24:08;18.10;83.30
19263;DHT22;9765;52.354;20.884;2023-05-10T15:26:36;18.10;83.60
19263;DHT22;9765;52.354;20.884;2023-05-10T15:29:03;18.10;83.60
19263;DHT22;9765;52.354;20.884;2023-05-10T15:31:30;18.10;83.50
19263;DHT22;9765;52.354;20.884;2023-05-10T15:34:01;18.00;82.90
19263;DHT22;9765;52.354;20.884;2023-05-10T15:36:29;18.00;83.50
19263;DHT22;9765;52.354;20.884;2023-05-10T15:39:02;18.10;84.10
19263;DHT22;9765;52.354;20.884;2023-05-10T15:41:31;18.00;84.00
19263;DHT22;9765;52.354;20.884;2023-05-10T15:44:04;17.90;81.90
19263;DHT22;9765;52.354;20.884;2023-05-10T15:46:31;17.90;83.40
19263;DHT22;9765;52.354;20.884;2023-05-10T15:48:58;17.80;82.80
19263;DHT22;9765;52.354;20.884;2023-05-10T15:51:32;17.80;82.90
19263;DHT22;9765;52.354;20.884;2023-05-10T15:54:00;17.80;83.60
19263;DHT22;9765;52.354;20.884;2023-05-10T15:56:29;17.80;83.80
19263;DHT22;9765;52.354;20.884;2023-05-10T15:58:56;17.80;83.00
19263;DHT22;9765;52.354;20.884;2023-05-10T16:01:28;17.80;83.10
19263;DHT22;9765;52.354;20.884;2023-05-10T16:03:56;17.80;83.30
19263;DHT22;9765;52.354;20.884;2023-05-10T16:06:26;17.70;82.80
19263;DHT22;9765;52.354;20.884;2023-05-10T16:08:56;17.70;83.20
19263;DHT22;9765;52.354;20.884;2023-05-10T16:11:27;17.70;83.20
19263;DHT22;9765;52.354;20.884;2023-05-10T16:13:57;17.60;83.80
19263;DHT22;9765;52.354;20.884;2023-05-10T16:16:24;17.20;82.60
19263;DHT22;9765;52.354;20.884;2023-05-10T16:18:52;17.60;84.30
19263;DHT22;9765;52.354;20.884;2023-05-10T16:21:20;17.60;83.90
19263;DHT22;9765;52.354;20.884;2023-05-10T16:23:47;17.60;84.30
19263;DHT22;9765;52.354;20.884;2023-05-10T16:26:16;17.60;84.20
19263;DHT22;9765;52.354;20.884;2023-05-10T16:28:49;17.60;84.40
19263;DHT22;9765;52.354;20.884;2023-05-10T16:31:16;17.50;82.30
19263;DHT22;9765;52.354;20.884;2023-05-10T16:33:44;17.50;82.40
19263;DHT22;9765;52.354;20.884;2023-05-10T16:36:12;17.50;83.00
19263;DHT22;9765;52.354;20.884;2023-05-10T16:38:40;17.50;83.30
19263;DHT22;9765;52.354;20.884;2023-05-10T16:41:07;17.40;83.00
19263;DHT22;9765;52.354;20.884;2023-05-10T16:43:39;17.40;82.20
19263;DHT22;9765;52.354;20.884;2023-05-10T16:46:10;17.30;82.90
19263;DHT22;9765;52.354;20.884;2023-05-10T16:48:40;17.30;82.60
19263;DHT22;9765;52.354;20.884;2023-05-10T16:51:09;17.30;83.10
19263;DHT22;9765;52.354;20.884;2023-05-10T16:53:38;17.40;84.80
19263;DHT22;9765;52.354;20.884;2023-05-10T16:56:05;17.30;83.10
19263;DHT22;9765;52.354;20.884;2023-05-10T16:58:33;17.30;84.00
19263;DHT22;9765;52.354;20.884;2023-05-10T17:01:04;17.20;83.50
19263;DHT22;9765;52.354;20.884;2023-05-10T17:03:31;17.20;84.90
19263;DHT22;9765;52.354;20.884;2023-05-10T17:05:58;17.10;85.20
19263;DHT22;9765;52.354;20.884;2023-05-10T17:08:28;16.90;84.40
19263;DHT22;9765;52.354;20.884;2023-05-10T17:11:00;16.80;83.10
19263;DHT22;9765;52.354;20.884;2023-05-10T17:13:28;16.70;82.40
19263;DHT22;9765;52.354;20.884;2023-05-10T17:15:55;16.60;83.50
19263;DHT22;9765;52.354;20.884;2023-05-10T17:18:22;16.60;83.50
19263;DHT22;9765;52.354;20.884;2023-05-10T17:20:49;16.50;84.50
19263;DHT22;9765;52.354;20.884;2023-05-10T17:23:16;16.40;83.90
19263;DHT22;9765;52.354;20.884;2023-05-10T17:25:43;16.30;84.50
19263;DHT22;9765;52.354;20.884;2023-05-10T17:28:12;16.20;83.60
19263;DHT22;9765;52.354;20.884;2023-05-10T17:30:39;16.20;84.20
19263;DHT22;9765;52.354;20.884;2023-05-10T17:33:06;16.20;83.80
19263;DHT22;9765;52.354;20.884;2023-05-10T17:35:35;16.10;84.70
19263;DHT22;9765;52.354;20.884;2023-05-10T17:38:02;16.00;84.40
19263;DHT22;9765;52.354;20.884;2023-05-10T17:40:31;16.00;84.70
19263;DHT22;9765;52.354;20.884;2023-05-10T17:42:58;15.90;86.00
19263;DHT22;9765;52.354;20.884;2023-05-10T17:45:26;16.00;86.10
19263;DHT22;9765;52.354;20.884;2023-05-10T17:47:53;15.80;86.50
19263;DHT22;9765;52.354;20.884;2023-05-10T17:50:20;15.70;85.10
19263;DHT22;9765;52.354;20.884;2023-05-10T17:52:47;15.70;86.00
19263;DHT22;9765;52.354;20.884;2023-05-10T17:55:17;15.80;85.10
19263;DHT22;9765;52.354;20.884;2023-05-10T17:57:45;15.70;85.20
19263;DHT22;9765;52.354;20.884;2023-05-10T18:00:13;15.60;86.30
19263;DHT22;9765;52.354;20.884;2023-05-10T18:02:41;15.60;85.30
19263;DHT22;9765;52.354;20.884;2023-05-10T18:05:11;15.50;86.20
19263;DHT22;9765;52.354;20.884;2023-05-10T18:07:38;15.40;87.60
19263;DHT22;9765;52.354;20.884;2023-05-10T18:10:09;15.30;87.20
